Time;durP1;ratioP1;P1;durP2;ratioP2;P2;SDS_P1;SDS_P2;PMS_P1;PMS_P2;Temp;Humidity;BMP_temperature;BMP_pressure;BME280_temperature;BME280_humidity;BME280_pressure;Samples;Min_cycle;Max_cycle;Signal;HPM_P1;HPM_P2
2022/01/13 00:01:48;;;;;;;21.48;11.07;;;1.10;89.20;;;;;;5035379;28;20674;-80
2022/01/13 00:04:15;;;;;;;14.07;8.30;;;1.10;89.20;;;;;;5019671;28;20040;-80
2022/01/13 00:06:40;;;;;;;13.38;8.00;;;1.20;89.30;;;;;;5017159;28;20024;-80
2022/01/13 00:09:06;;;;;;;11.73;7.45;;;1.20;89.40;;;;;;5007643;28;20029;-80
2022/01/13 00:11:32;;;;;;;13.65;7.60;;;1.20;89.50;;;;;;5047131;28;20037;-80
2022/01/13 00:16:45;;;;;;;13.48;7.88;;;1.20;89.60;;;;;;5032990;28;20059;-80
2022/01/13 00:21:49;;;;;;;14.60;9.13;;;1.30;89.70;;;;;;5012608;28;20129;-80
2022/01/13 00:24:15;;;;;;;12.70;7.53;;;1.30;89.80;;;;;;5033395;28;20045;-80
2022/01/13 00:26:41;;;;;;;13.82;8.50;;;1.30;89.80;;;;;;4994381;28;20060;-80
2022/01/13 00:29:09;;;;;;;14.30;7.80;;;1.40;89.80;;;;;;5013427;28;20065;-80
2022/01/13 00:31:38;;;;;;;14.88;7.65;;;1.40;89.90;;;;;;5042534;28;20036;-80
2022/01/13 00:34:04;;;;;;;16.77;8.95;;;1.40;89.90;;;;;;4988303;28;20050;-80
2022/01/13 00:36:32;;;;;;;15.25;8.85;;;1.40;89.90;;;;;;5037106;28;20085;-80
2022/01/13 00:38:58;;;;;;;12.68;8.10;;;1.40;89.90;;;;;;5034398;28;20041;-80
2022/01/13 00:41:26;;;;;;;13.57;7.97;;;1.40;89.90;;;;;;5050471;28;20629;-80
2022/01/13 00:43:51;;;;;;;15.23;8.48;;;1.40;90.00;;;;;;5033824;28;20065;-80
2022/01/13 00:46:23;;;;;;;15.38;8.60;;;1.40;90.00;;;;;;5033855;28;20056;-80
2022/01/13 00:48:50;;;;;;;14.05;8.80;;;1.40;90.00;;;;;;5002403;28;20041;-80
2022/01/13 00:51:15;;;;;;;15.55;8.02;;;1.40;90.00;;;;;;5046561;28;20044;-80
2022/01/13 00:53:41;;;;;;;12.20;8.07;;;1.50;90.00;;;;;;5031803;28;20037;-80
2022/01/13 00:56:06;;;;;;;13.13;7.90;;;1.50;90.00;;;;;;5020410;28;20150;-80
2022/01/13 00:58:33;;;;;;;15.18;8.70;;;1.50;90.10;;;;;;5027619;28;20041;-80
2022/01/13 01:00:59;;;;;;;16.02;8.52;;;1.50;90.10;;;;;;5011984;28;20033;-80
2022/01/13 01:03:25;;;;;;;13.10;8.35;;;1.50;90.10;;;;;;5032181;28;20041;-80
2022/01/13 01:05:51;;;;;;;17.88;9.38;;;1.60;90.20;;;;;;5033159;28;20079;-80
2022/01/13 01:08:17;;;;;;;15.52;8.43;;;1.60;90.20;;;;;;5029487;28;20029;-80
2022/01/13 01:10:45;;;;;;;14.57;8.60;;;1.60;90.20;;;;;;4988573;28;20029;-80
2022/01/13 01:13:16;;;;;;;14.23;8.23;;;1.60;90.10;;;;;;5040919;28;20033;-80
2022/01/13 01:15:47;;;;;;;;;;;1.60;90.20;;;;;;5015092;28;20025;-79
2022/01/13 01:18:24;;;;;;;15.27;8.75;;;1.60;90.10;;;;;;5019956;28;19924;-80
2022/01/13 01:21:04;;;;;;;16.92;9.50;;;1.60;90.10;;;;;;5027400;28;20037;-80
2022/01/13 01:23:33;;;;;;;17.00;8.63;;;1.60;90.10;;;;;;5030417;28;20075;-80
2022/01/13 01:26:06;;;;;;;15.35;9.35;;;1.60;90.10;;;;;;5048747;28;20078;-80
2022/01/13 01:28:42;;;;;;;13.63;8.00;;;1.60;90.10;;;;;;5021182;28;20443;-80
2022/01/13 01:31:09;;;;;;;16.30;8.90;;;1.60;90.20;;;;;;5023486;28;20033;-80
2022/01/13 01:33:38;;;;;;;13.77;8.35;;;1.70;90.20;;;;;;5029488;28;20069;-80
2022/01/13 01:36:04;;;;;;;15.77;8.95;;;1.70;90.20;;;;;;5000373;28;20091;-80
2022/01/13 01:38:30;;;;;;;14.30;8.02;;;1.70;90.30;;;;;;5027330;28;20383;-80
2022/01/13 01:40:56;;;;;;;15.70;9.18;;;1.70;90.30;;;;;;5018612;28;20041;-80
2022/01/13 01:43:22;;;;;;;13.38;8.85;;;1.70;90.30;;;;;;5008671;28;20041;-80
2022/01/13 01:45:49;;;;;;;15.45;7.82;;;1.70;90.30;;;;;;5013466;28;20166;-80
2022/01/13 01:48:19;;;;;;;18.45;9.40;;;1.70;90.30;;;;;;5047296;28;20040;-80
2022/01/13 01:50:54;;;;;;;16.27;9.35;;;1.80;90.30;;;;;;5019119;28;20049;-80
2022/01/13 01:53:20;;;;;;;13.82;7.82;;;1.80;90.30;;;;;;5028642;28;20033;-80
2022/01/13 01:55:45;;;;;;;14.55;9.13;;;1.80;90.30;;;;;;5031144;28;20029;-80
2022/01/13 01:58:11;;;;;;;15.27;8.48;;;1.80;90.30;;;;;;5006186;28;20067;-80
2022/01/13 02:00:36;;;;;;;15.50;8.63;;;1.80;90.40;;;;;;5033021;28;20021;-80
2022/01/13 02:03:02;;;;;;;16.50;8.77;;;1.80;90.40;;;;;;5027333;28;20041;-80
2022/01/13 02:05:28;;;;;;;15.25;8.63;;;1.80;90.40;;;;;;5025364;28;20040;-80
2022/01/13 02:07:53;;;;;;;13.73;8.52;;;1.80;90.30;;;;;;5012385;28;20516;-80
2022/01/13 02:10:19;;;;;;;13.85;8.25;;;1.80;90.40;;;;;;5034531;28;20033;-80
2022/01/13 02:12:48;;;;;;;12.25;8.18;;;1.90;90.40;;;;;;5027723;28;20932;-80
2022/01/13 02:15:29;;;;;;;13.75;7.88;;;1.90;90.40;;;;;;5017101;28;20044;-80
2022/01/13 02:17:56;;;;;;;15.43;8.05;;;1.90;90.40;;;;;;5000512;28;20044;-80
2022/01/13 02:20:22;;;;;;;16.63;8.82;;;1.90;90.40;;;;;;4999576;28;20031;-80
2022/01/13 02:22:47;;;;;;;14.48;8.55;;;1.90;90.40;;;;;;5024695;28;20033;-80
2022/01/13 02:25:14;;;;;;;13.55;7.90;;;1.90;90.40;;;;;;5031990;28;20391;-80
2022/01/13 02:27:40;;;;;;;13.25;8.27;;;1.90;90.40;;;;;;5018405;28;20108;-79
2022/01/13 02:30:05;;;;;;;14.32;8.30;;;1.90;90.40;;;;;;5031130;28;20530;-80
2022/01/13 02:32:31;;;;;;;12.63;7.57;;;1.90;90.40;;;;;;5028364;28;20033;-80
2022/01/13 02:34:56;;;;;;;14.05;8.93;;;1.90;90.40;;;;;;4995156;28;20060;-79
2022/01/13 02:37:22;;;;;;;13.95;8.25;;;1.90;90.40;;;;;;5025767;28;20037;-80
2022/01/13 02:39:48;;;;;;;12.85;7.72;;;1.90;90.40;;;;;;4999120;28;20037;-80
2022/01/13 02:42:14;;;;;;;13.50;8.43;;;1.90;90.50;;;;;;5002808;28;20102;-79
2022/01/13 02:45:01;;;;;;;12.25;8.07;;;1.90;90.50;;;;;;5024252;28;20355;-80
2022/01/13 02:47:58;;;;;;;11.70;7.88;;;1.90;90.50;;;;;;5021566;28;20655;-80
2022/01/13 02:50:18;;;;;;;;;;;2.00;90.50;;;;;;5021991;28;20082;-80
2022/01/13 02:52:44;;;;;;;16.33;8.50;;;2.00;90.50;;;;;;5025184;28;20379;-80
2022/01/13 02:55:10;;;;;;;15.85;8.35;;;2.00;90.40;;;;;;5013851;28;20037;-80
2022/01/13 02:57:36;;;;;;;11.98;7.78;;;2.00;90.40;;;;;;5040430;28;20445;-80
2022/01/13 03:00:02;;;;;;;15.48;8.73;;;2.00;90.40;;;;;;5045073;28;20033;-80
2022/01/13 03:02:30;;;;;;;16.63;9.73;;;1.90;90.40;;;;;;5029582;28;20033;-80
2022/01/13 03:04:56;;;;;;;13.73;8.32;;;1.90;90.50;;;;;;5036335;28;20048;-80
2022/01/13 03:07:22;;;;;;;12.88;7.38;;;2.00;90.50;;;;;;5029889;28;20037;-80
2022/01/13 03:09:47;;;;;;;12.50;7.47;;;2.00;90.50;;;;;;5003238;28;20034;-80
2022/01/13 03:12:13;;;;;;;13.25;7.88;;;1.90;90.50;;;;;;5029770;28;20082;-80
2022/01/13 03:14:39;;;;;;;12.15;6.90;;;1.90;90.50;;;;;;5002187;28;20053;-81
2022/01/13 03:17:04;;;;;;;9.65;6.15;;;2.00;90.50;;;;;;5024437;28;20046;-80
2022/01/13 03:19:30;;;;;;;9.73;6.50;;;1.90;90.50;;;;;;5000425;28;20021;-80
2022/01/13 03:21:55;;;;;;;15.32;7.72;;;2.00;90.50;;;;;;5018409;28;20487;-80
2022/01/13 03:24:21;;;;;;;13.68;8.25;;;2.00;90.50;;;;;;4997779;28;20030;-80
2022/01/13 03:26:49;;;;;;;12.05;7.43;;;2.00;90.50;;;;;;5030647;28;20037;-80
2022/01/13 03:29:15;;;;;;;11.85;7.07;;;2.00;90.60;;;;;;5034439;28;20045;-79
2022/01/13 03:31:42;;;;;;;13.13;7.00;;;2.00;90.60;;;;;;5022447;28;20525;-81
2022/01/13 03:34:07;;;;;;;12.23;7.60;;;2.00;90.60;;;;;;5007152;28;20495;-80
2022/01/13 03:36:33;;;;;;;12.23;7.65;;;2.00;90.60;;;;;;5028514;28;20024;-80
2022/01/13 03:38:58;;;;;;;11.95;7.70;;;2.00;90.60;;;;;;5030456;28;20044;-80
2022/01/13 03:41:24;;;;;;;13.23;7.75;;;2.00;90.60;;;;;;4993170;28;20383;-81
2022/01/13 03:43:52;;;;;;;11.77;7.18;;;2.00;90.60;;;;;;5031182;28;20037;-80
2022/01/13 03:46:17;;;;;;;12.60;7.72;;;2.10;90.70;;;;;;5012604;28;20045;-80
2022/01/13 03:48:43;;;;;;;15.35;8.65;;;2.10;90.70;;;;;;5014113;28;20044;-80
2022/01/13 03:51:09;;;;;;;12.52;7.93;;;2.10;90.70;;;;;;5013237;28;20037;-80
2022/01/13 03:53:53;;;;;;;14.25;9.05;;;2.00;90.60;;;;;;5041867;28;20082;-80
2022/01/13 03:56:54;;;;;;;11.70;7.82;;;2.10;90.70;;;;;;5045682;28;20033;-80
2022/01/13 03:59:32;;;;;;;16.70;8.43;;;2.10;90.70;;;;;;5053078;28;20032;-80
2022/01/13 04:02:07;;;;;;;13.90;8.23;;;2.10;90.70;;;;;;5019862;28;20071;-80
2022/01/13 04:04:36;;;;;;;14.52;7.88;;;2.10;90.70;;;;;;5004983;28;20094;-80
2022/01/13 04:07:16;;;;;;;14.20;8.52;;;2.10;90.70;;;;;;5043068;28;20097;-81
2022/01/13 04:09:41;;;;;;;14.55;7.85;;;2.10;90.70;;;;;;5029572;28;20040;-81
2022/01/13 04:12:10;;;;;;;14.68;8.85;;;2.10;90.70;;;;;;5046666;28;20037;-80
2022/01/13 04:17:07;;;;;;;13.10;8.85;;;2.10;90.70;;;;;;5018875;28;20115;-80
2022/01/13 04:19:32;;;;;;;11.90;8.45;;;2.10;90.70;;;;;;5032203;28;20067;-80
2022/01/13 04:21:58;;;;;;;15.13;8.10;;;2.10;90.70;;;;;;5017689;28;20037;-80
2022/01/13 04:24:23;;;;;;;12.40;6.70;;;2.10;90.70;;;;;;5025556;28;20029;-80
2022/01/13 04:26:49;;;;;;;11.27;6.78;;;2.10;90.70;;;;;;5027760;28;20037;-80
2022/01/13 04:31:41;;;;;;;9.73;5.50;;;2.10;90.80;;;;;;5014044;28;20054;-80
2022/01/13 04:34:07;;;;;;;6.10;4.75;;;2.10;90.70;;;;;;5008575;28;20478;-80
2022/01/13 04:36:32;;;;;;;5.40;3.88;;;2.10;90.70;;;;;;5012669;28;20036;-80
2022/01/13 04:38:58;;;;;;;7.10;4.68;;;2.10;90.80;;;;;;5048643;28;20495;-80
2022/01/13 04:41:34;;;;;;;5.88;3.58;;;2.10;90.80;;;;;;4996452;28;20034;-80
2022/01/13 04:43:59;;;;;;;5.93;3.53;;;2.10;90.80;;;;;;4996745;28;20037;-80
2022/01/13 04:46:25;;;;;;;4.22;3.08;;;2.10;90.70;;;;;;5005932;28;20324;-80
2022/01/13 04:48:50;;;;;;;4.63;2.90;;;2.10;90.70;;;;;;5013294;28;20037;-80
2022/01/13 04:51:16;;;;;;;3.70;2.47;;;2.10;90.70;;;;;;4996924;28;20032;-80
2022/01/13 04:53:41;;;;;;;5.68;3.00;;;2.10;90.70;;;;;;5030707;28;20062;-80
2022/01/13 04:56:14;;;;;;;3.03;2.05;;;2.10;90.70;;;;;;5024401;28;20274;-80
2022/01/13 04:58:40;;;;;;;9.23;2.53;;;2.10;90.70;;;;;;5025066;28;20040;-80
2022/01/13 05:01:05;;;;;;;4.85;3.30;;;2.00;90.70;;;;;;5013065;28;20033;-80
2022/01/13 05:03:31;;;;;;;3.72;2.50;;;2.00;90.60;;;;;;5015494;28;20064;-80
2022/01/13 05:05:56;;;;;;;5.57;2.30;;;2.00;90.70;;;;;;4983305;28;20096;-80
2022/01/13 05:08:22;;;;;;;4.68;2.70;;;2.00;90.70;;;;;;5012298;28;20055;-80
2022/01/13 05:10:47;;;;;;;5.05;2.63;;;2.00;90.70;;;;;;4999151;28;20108;-79
2022/01/13 05:13:13;;;;;;;5.90;2.80;;;2.00;90.70;;;;;;4991311;28;20440;-81
2022/01/13 05:15:40;;;;;;;6.38;2.20;;;2.00;90.70;;;;;;4993202;28;20656;-80
2022/01/13 05:18:21;;;;;;;4.65;2.55;;;2.00;90.70;;;;;;5014360;28;20048;-80
2022/01/13 05:20:57;;;;;;;5.60;3.03;;;2.00;90.80;;;;;;5022439;28;20033;-80
2022/01/13 05:23:23;;;;;;;4.75;3.08;;;2.00;90.80;;;;;;5032917;28;20036;-79
2022/01/13 05:25:48;;;;;;;6.10;2.85;;;2.00;90.70;;;;;;5005606;28;20033;-79
2022/01/13 05:28:14;;;;;;;6.22;2.53;;;2.00;90.70;;;;;;5026931;28;20036;-79
2022/01/13 05:30:40;;;;;;;3.72;2.83;;;2.00;90.80;;;;;;5024645;28;20127;-79
2022/01/13 05:33:06;;;;;;;4.35;2.40;;;2.00;90.70;;;;;;5008404;28;20099;-79
2022/01/13 05:35:31;;;;;;;3.63;2.55;;;2.00;90.70;;;;;;4998873;28;20046;-79
2022/01/13 05:37:57;;;;;;;4.32;2.88;;;2.00;90.70;;;;;;5006514;28;20052;-79
2022/01/13 05:40:22;;;;;;;5.55;2.58;;;2.00;90.70;;;;;;5011593;28;20618;-79
2022/01/13 05:42:48;;;;;;;6.32;2.63;;;2.00;90.70;;;;;;4996983;28;20049;-79
2022/01/13 05:45:16;;;;;;;3.97;3.08;;;2.00;91.10;;;;;;5012506;28;20486;-80
2022/01/13 05:47:49;;;;;;;5.03;3.10;;;2.00;90.70;;;;;;5027823;28;20040;-79
2022/01/13 05:50:17;;;;;;;4.07;2.58;;;2.00;90.70;;;;;;5023891;28;20080;-80
2022/01/13 05:52:42;;;;;;;3.85;2.58;;;2.00;90.80;;;;;;5010791;28;20049;-80
2022/01/13 05:55:09;;;;;;;2.92;2.42;;;2.00;90.70;;;;;;5026410;28;20120;-80
2022/01/13 05:57:34;;;;;;;4.22;2.80;;;2.00;90.70;;;;;;5026050;28;20097;-80
2022/01/13 06:00:00;;;;;;;3.75;2.58;;;2.00;90.70;;;;;;5025540;28;20131;-81
2022/01/13 06:02:25;;;;;;;6.00;3.72;;;2.00;90.70;;;;;;4991278;28;20029;-80
2022/01/13 06:04:51;;;;;;;4.78;2.92;;;2.00;90.70;;;;;;5016035;28;20794;-80
2022/01/13 06:07:17;;;;;;;3.28;2.55;;;2.00;90.70;;;;;;5022292;28;20040;-80
2022/01/13 06:09:43;;;;;;;3.40;2.50;;;2.00;90.70;;;;;;4981716;28;20033;-80
2022/01/13 06:12:09;;;;;;;3.58;2.40;;;2.00;90.70;;;;;;5020017;28;20082;-80
2022/01/13 06:14:34;;;;;;;4.50;3.20;;;2.10;90.70;;;;;;4999391;28;20045;-80
2022/01/13 06:17:00;;;;;;;7.75;3.25;;;2.10;90.70;;;;;;5037677;28;20033;-80
2022/01/13 06:19:25;;;;;;;3.30;2.60;;;2.10;90.70;;;;;;5026591;28;20024;-80
2022/01/13 06:21:51;;;;;;;5.80;3.10;;;2.10;90.70;;;;;;5024397;28;20147;-81
2022/01/13 06:24:16;;;;;;;6.63;3.15;;;2.10;90.70;;;;;;5021327;28;20153;-81
2022/01/13 06:26:42;;;;;;;4.63;2.83;;;2.10;90.70;;;;;;5023953;28;20048;-80
2022/01/13 06:29:08;;;;;;;3.85;2.90;;;2.10;90.70;;;;;;5015366;28;20448;-81
2022/01/13 06:31:33;;;;;;;4.80;2.90;;;2.10;90.70;;;;;;5028422;28;20025;-81
2022/01/13 06:33:59;;;;;;;4.05;3.35;;;2.10;90.70;;;;;;5022137;28;20519;-81
2022/01/13 06:36:24;;;;;;;6.43;3.40;;;2.10;90.70;;;;;;5023894;28;20044;-80
2022/01/13 06:38:51;;;;;;;4.53;3.53;;;2.10;90.70;;;;;;5007328;28;20048;-81
2022/01/13 06:41:17;;;;;;;4.40;2.90;;;2.10;90.70;;;;;;5014160;28;20029;-81
2022/01/13 06:43:43;;;;;;;7.75;3.28;;;2.00;90.70;;;;;;5022678;28;20494;-80
2022/01/13 06:46:10;;;;;;;4.18;2.95;;;2.00;90.70;;;;;;5010222;28;20047;-81
2022/01/13 06:48:35;;;;;;;4.18;2.97;;;2.00;90.70;;;;;;5009832;28;20117;-81
2022/01/13 06:51:01;;;;;;;5.43;3.13;;;2.00;90.70;;;;;;5030590;28;20021;-81
2022/01/13 06:53:26;;;;;;;6.35;3.38;;;2.00;90.70;;;;;;5046633;28;20453;-81
2022/01/13 06:55:52;;;;;;;5.50;2.85;;;2.00;90.70;;;;;;4994164;28;20480;-81
2022/01/13 06:58:18;;;;;;;4.70;3.30;;;2.10;90.70;;;;;;5021630;28;20665;-81
2022/01/13 07:00:43;;;;;;;5.00;2.97;;;2.00;90.70;;;;;;5028632;28;20033;-80
2022/01/13 07:03:09;;;;;;;4.78;2.70;;;2.00;90.70;;;;;;5002554;28;20441;-81
2022/01/13 07:05:35;;;;;;;6.43;2.95;;;2.00;90.70;;;;;;5019049;28;20499;-81
2022/01/13 07:08:01;;;;;;;6.18;3.70;;;2.00;90.70;;;;;;4998525;28;20119;-81
2022/01/13 07:10:26;;;;;;;4.78;3.10;;;2.00;90.70;;;;;;5029190;28;20434;-81
2022/01/13 07:12:52;;;;;;;3.20;2.85;;;2.00;90.70;;;;;;5017737;28;20038;-80
2022/01/13 07:15:17;;;;;;;4.07;3.40;;;2.00;90.70;;;;;;5051195;28;20036;-80
2022/01/13 07:17:43;;;;;;;4.90;3.38;;;2.00;90.70;;;;;;5046713;28;20040;-81
2022/01/13 07:20:09;;;;;;;5.93;3.67;;;2.10;90.80;;;;;;5024067;28;20695;-80
2022/01/13 07:22:37;;;;;;;6.82;4.78;;;2.10;90.80;;;;;;5039717;28;20098;-81
2022/01/13 07:25:02;;;;;;;6.03;4.40;;;2.10;90.80;;;;;;5050803;28;20044;-79
2022/01/13 07:27:28;;;;;;;7.25;4.13;;;2.10;90.80;;;;;;5045706;28;20803;-79
2022/01/13 07:29:54;;;;;;;5.88;4.50;;;2.00;90.70;;;;;;5033791;28;20122;-80
2022/01/13 07:32:19;;;;;;;7.75;5.10;;;2.00;90.70;;;;;;5008647;28;20109;-80
2022/01/13 07:34:45;;;;;;;8.48;5.35;;;2.10;90.70;;;;;;5021026;28;20048;-80
2022/01/13 07:37:10;;;;;;;10.07;5.90;;;2.00;90.70;;;;;;5004551;28;20044;-80
2022/01/13 07:39:35;;;;;;;6.47;4.80;;;2.00;90.70;;;;;;5002992;28;20033;-80
2022/01/13 07:42:05;;;;;;;11.75;6.53;;;2.00;90.70;;;;;;5026119;28;20025;-80
2022/01/13 07:44:30;;;;;;;9.07;6.47;;;2.10;90.80;;;;;;5054776;28;20106;-80
2022/01/13 07:46:58;;;;;;;11.38;7.22;;;2.00;90.70;;;;;;5032250;28;20026;-80
2022/01/13 07:49:24;;;;;;;12.35;6.82;;;2.10;90.70;;;;;;5022695;28;20639;-80
2022/01/13 07:51:49;;;;;;;15.65;9.80;;;2.10;90.70;;;;;;4991516;28;20116;-80
2022/01/13 07:54:15;;;;;;;34.67;16.27;;;2.10;90.70;;;;;;5031297;28;20029;-81
2022/01/13 07:56:40;;;;;;;15.90;8.70;;;2.10;90.80;;;;;;5005445;28;20021;-80
2022/01/13 07:59:06;;;;;;;8.13;5.55;;;2.10;90.70;;;;;;5005855;28;20034;-80
2022/01/13 08:01:31;;;;;;;9.90;6.47;;;2.10;90.70;;;;;;4998054;28;21428;-81
2022/01/13 08:03:57;;;;;;;9.07;5.90;;;2.00;90.70;;;;;;5003642;28;20745;-80
2022/01/13 08:06:22;;;;;;;117.82;36.30;;;2.10;90.70;;;;;;5025324;28;20112;-80
2022/01/13 08:08:48;;;;;;;11.90;6.43;;;2.10;90.70;;;;;;5033529;28;20061;-80
2022/01/13 08:11:13;;;;;;;8.95;6.03;;;2.10;90.70;;;;;;5032480;28;20116;-80
2022/01/13 08:13:39;;;;;;;24.35;9.75;;;2.00;90.60;;;;;;5021720;28;20033;-80
2022/01/13 08:16:08;;;;;;;12.55;6.80;;;2.00;90.70;;;;;;5018228;28;20063;-80
2022/01/13 08:21:19;;;;;;;21.23;10.60;;;2.10;90.70;;;;;;5023570;28;20091;-81
2022/01/13 08:23:44;;;;;;;14.70;8.40;;;2.10;90.70;;;;;;5014942;28;20654;-81
2022/01/13 08:26:10;;;;;;;19.85;10.18;;;2.10;90.70;;;;;;5016159;28;20038;-81
2022/01/13 08:28:35;;;;;;;19.45;10.30;;;2.10;90.70;;;;;;5029369;28;20098;-80
2022/01/13 08:31:03;;;;;;;15.50;8.60;;;2.10;90.70;;;;;;5006028;28;20029;-81
2022/01/13 08:33:29;;;;;;;13.68;6.93;;;2.10;90.70;;;;;;5037541;28;20029;-81
2022/01/13 08:35:54;;;;;;;16.00;8.30;;;2.10;90.70;;;;;;5030679;28;20055;-81
2022/01/13 08:38:20;;;;;;;12.70;8.27;;;2.10;90.70;;;;;;5010875;28;20033;-81
2022/01/13 08:40:57;;;;;;;16.05;8.50;;;2.20;90.70;;;;;;5024814;28;20029;-81
2022/01/13 08:43:23;;;;;;;13.30;8.40;;;2.20;90.80;;;;;;5029967;28;20045;-80
2022/01/13 08:45:48;;;;;;;12.35;7.50;;;2.20;90.70;;;;;;5012266;28;20052;-81
2022/01/13 08:48:14;;;;;;;17.05;11.10;;;2.20;90.70;;;;;;5007316;28;20032;-81
2022/01/13 08:50:40;;;;;;;16.20;10.52;;;2.20;90.70;;;;;;5033165;28;20037;-81
2022/01/13 08:53:05;;;;;;;11.07;7.10;;;2.20;90.70;;;;;;5043878;28;20037;-81
2022/01/13 08:55:31;;;;;;;12.57;7.78;;;2.20;90.80;;;;;;4996929;28;20025;-81
2022/01/13 08:57:56;;;;;;;10.85;6.90;;;2.20;90.70;;;;;;5026402;28;20711;-81
2022/01/13 09:00:22;;;;;;;10.07;7.20;;;2.20;90.70;;;;;;5013483;28;20043;-82
2022/01/13 09:02:48;;;;;;;10.52;7.38;;;2.30;90.70;;;;;;5034804;28;20117;-82
2022/01/13 09:05:14;;;;;;;9.30;6.30;;;2.30;90.80;;;;;;5033783;28;20032;-82
2022/01/13 09:07:40;;;;;;;11.52;7.18;;;2.30;90.80;;;;;;5038708;28;20037;-82
2022/01/13 09:10:06;;;;;;;9.70;6.93;;;2.30;90.70;;;;;;5004995;28;20040;-81
2022/01/13 09:12:32;;;;;;;11.57;7.20;;;2.30;90.80;;;;;;5057281;28;21676;-81
2022/01/13 09:15:03;;;;;;;9.90;6.68;;;2.30;90.80;;;;;;5020807;28;20040;-81
2022/01/13 09:17:29;;;;;;;12.90;7.30;;;2.30;90.70;;;;;;5024043;28;20037;-82
2022/01/13 09:19:55;;;;;;;11.77;7.78;;;2.40;90.80;;;;;;5017525;28;20033;-81
2022/01/13 09:22:20;;;;;;;11.82;6.65;;;2.40;90.70;;;;;;5018549;28;20130;-82
2022/01/13 09:24:46;;;;;;;9.02;6.20;;;2.40;90.70;;;;;;5026044;28;20567;-81
2022/01/13 09:27:11;;;;;;;11.60;6.72;;;2.40;90.70;;;;;;5014790;28;20041;-82
2022/01/13 09:29:37;;;;;;;11.10;6.72;;;2.40;90.70;;;;;;5005440;28;20391;-81
2022/01/13 09:32:03;;;;;;;10.32;6.80;;;2.40;90.70;;;;;;5019635;28;20039;-81
2022/01/13 09:34:29;;;;;;;11.05;6.65;;;2.40;90.70;;;;;;4997814;28;20047;-81
2022/01/13 09:36:54;;;;;;;10.07;6.03;;;2.40;90.70;;;;;;5045988;28;20037;-81
2022/01/13 09:39:20;;;;;;;10.05;6.22;;;2.40;90.70;;;;;;5008505;28;20553;-81
2022/01/13 09:41:45;;;;;;;9.23;6.50;;;2.40;90.70;;;;;;5032476;28;20029;-81
2022/01/13 09:44:13;;;;;;;13.07;6.50;;;2.40;90.70;;;;;;5039921;28;20067;-81
2022/01/13 09:46:38;;;;;;;11.48;7.57;;;2.40;90.70;;;;;;5008561;28;20042;-81
2022/01/13 09:49:05;;;;;;;21.30;12.00;;;2.50;90.70;;;;;;5052149;28;20569;-81
2022/01/13 09:51:35;;;;;;;16.00;9.70;;;2.50;90.80;;;;;;5018947;28;20025;-82
2022/01/13 09:54:01;;;;;;;14.60;8.15;;;2.50;90.80;;;;;;5015120;28;20535;-82
2022/01/13 09:56:27;;;;;;;11.80;7.75;;;2.50;90.80;;;;;;5035315;28;20086;-82
2022/01/13 09:58:52;;;;;;;9.30;6.43;;;2.60;91.10;;;;;;5014097;28;20447;-81
2022/01/13 10:01:18;;;;;;;12.85;8.10;;;2.60;90.70;;;;;;5019279;28;20032;-81
2022/01/13 10:03:43;;;;;;;9.85;7.03;;;2.60;90.70;;;;;;5019729;28;20043;-82
2022/01/13 10:06:19;;;;;;;12.77;7.90;;;2.70;90.70;;;;;;5016585;28;20036;-82
2022/01/13 10:08:52;;;;;;;11.95;7.68;;;2.60;90.70;;;;;;5021674;28;20037;-82
2022/01/13 10:11:35;;;;;;;13.27;7.70;;;2.70;90.70;;;;;;5030288;28;20479;-81
2022/01/13 10:14:07;;;;;;;10.65;7.50;;;2.70;90.70;;;;;;5030921;28;20584;-82
2022/01/13 10:16:32;;;;;;;12.15;7.95;;;2.70;90.60;;;;;;5011623;28;20048;-82
2022/01/13 10:18:58;;;;;;;11.93;8.10;;;2.70;90.60;;;;;;5034492;28;20730;-82
2022/01/13 10:21:23;;;;;;;107.72;69.95;;;2.70;90.60;;;;;;5033013;28;20921;-82
2022/01/13 10:24:06;;;;;;;15.73;10.80;;;2.80;90.70;;;;;;4994368;28;20132;-82
2022/01/13 10:26:34;;;;;;;15.10;11.77;;;2.80;90.60;;;;;;5025550;28;20041;-82
2022/01/13 10:28:59;;;;;;;157.75;59.20;;;2.80;90.60;;;;;;5009198;28;20041;-81
2022/01/13 10:31:44;;;;;;;69.55;28.70;;;2.80;90.60;;;;;;5030359;28;20037;-82
2022/01/13 10:34:17;;;;;;;167.85;54.38;;;2.90;90.60;;;;;;5043895;28;20060;-81
2022/01/13 10:37:03;;;;;;;35.22;15.32;;;2.90;90.60;;;;;;5032330;28;20043;-82
2022/01/13 10:39:44;;;;;;;118.63;38.05;;;2.90;90.60;;;;;;5023353;28;20045;-82
2022/01/13 10:42:32;;;;;;;114.90;39.27;;;3.00;90.60;;;;;;5057289;28;20033;-82
2022/01/13 10:44:58;;;;;;;84.28;29.10;;;3.00;90.60;;;;;;5031013;28;20883;-82
2022/01/13 10:47:24;;;;;;;54.88;21.25;;;3.00;90.50;;;;;;5039882;28;20037;-82
2022/01/13 10:49:50;;;;;;;257.55;86.68;;;3.00;90.50;;;;;;5029615;28;20060;-82
2022/01/13 10:52:16;;;;;;;104.88;40.55;;;3.10;90.50;;;;;;5035651;28;20044;-81
2022/01/13 10:54:42;;;;;;;69.25;32.35;;;3.10;90.50;;;;;;5021302;28;20025;-81
2022/01/13 10:57:19;;;;;;;136.20;57.13;;;3.10;90.50;;;;;;5036924;28;20032;-82
2022/01/13 10:59:44;;;;;;;59.75;27.02;;;3.10;90.40;;;;;;5040654;28;20041;-83
2022/01/13 11:02:10;;;;;;;69.57;30.40;;;3.10;90.50;;;;;;5038813;28;20109;-83
2022/01/13 11:04:36;;;;;;;69.80;31.60;;;3.20;90.50;;;;;;5009089;28;20041;-83
2022/01/13 11:07:31;;;;;;;44.33;22.33;;;3.20;90.50;;;;;;5032847;28;20049;-83
2022/01/13 11:09:58;;;;;;;15.82;9.48;;;3.20;90.50;;;;;;4992572;28;20300;-83
2022/01/13 11:12:42;;;;;;;14.57;8.77;;;3.20;90.40;;;;;;5026347;28;20079;-83
2022/01/13 11:15:13;;;;;;;14.68;9.07;;;3.20;90.30;;;;;;5016783;28;20033;-83
2022/01/13 11:17:39;;;;;;;22.95;12.30;;;3.30;90.40;;;;;;5022688;28;20047;-83
2022/01/13 11:20:06;;;;;;;28.08;13.35;;;3.20;90.30;;;;;;5007068;28;20384;-83
2022/01/13 11:22:35;;;;;;;20.52;11.50;;;3.30;90.30;;;;;;5040511;28;20020;-83
2022/01/13 11:25:05;;;;;;;42.50;22.90;;;3.30;90.30;;;;;;4996895;28;20025;-83
2022/01/13 11:27:31;;;;;;;28.63;17.52;;;3.30;90.30;;;;;;5031261;28;20033;-83
2022/01/13 11:29:57;;;;;;;24.52;13.93;;;3.40;90.30;;;;;;5054704;28;20043;-83
2022/01/13 11:32:23;;;;;;;24.95;12.50;;;3.40;90.30;;;;;;5032057;28;20482;-83
2022/01/13 11:34:48;;;;;;;14.77;9.52;;;3.40;90.30;;;;;;5023629;28;20595;-84
2022/01/13 11:37:14;;;;;;;15.45;9.88;;;3.40;90.30;;;;;;5011374;28;20089;-83
2022/01/13 11:39:42;;;;;;;16.98;9.90;;;3.50;90.30;;;;;;5036799;28;20124;-82
2022/01/13 11:42:09;;;;;;;17.08;9.70;;;3.50;90.30;;;;;;5019886;28;20040;-83
2022/01/13 11:44:35;;;;;;;14.30;9.05;;;3.50;90.30;;;;;;5002941;28;20379;-83
2022/01/13 11:47:01;;;;;;;15.23;8.45;;;3.60;90.30;;;;;;5033912;28;20037;-83
2022/01/13 11:51:59;;;;;;;11.73;8.30;;;3.60;90.30;;;;;;5052227;28;20041;-83
2022/01/13 11:54:35;;;;;;;10.65;7.18;;;3.60;90.20;;;;;;5013470;28;20084;-83
2022/01/13 11:57:09;;;;;;;12.77;7.72;;;3.70;90.20;;;;;;5040674;28;20033;-83
2022/01/13 11:59:35;;;;;;;13.73;8.40;;;3.70;90.20;;;;;;5054345;28;20063;-83
2022/01/13 12:02:26;;;;;;;11.70;8.15;;;3.70;90.20;;;;;;5019400;28;20044;-83
2022/01/13 12:05:05;;;;;;;11.43;8.07;;;3.70;90.00;;;;;;5033329;28;20479;-83
2022/01/13 12:07:36;;;;;;;13.27;9.02;;;3.70;90.00;;;;;;5034908;28;20251;-83
2022/01/13 12:10:03;;;;;;;13.60;7.82;;;3.70;90.10;;;;;;5038345;28;20045;-83
2022/01/13 12:12:31;;;;;;;13.70;8.35;;;3.80;90.10;;;;;;5033753;28;20025;-83
2022/01/13 12:15:18;;;;;;;13.57;8.65;;;3.80;90.10;;;;;;5020112;28;20028;-83
2022/01/13 12:17:53;;;;;;;11.18;8.20;;;3.80;90.00;;;;;;5029159;28;20039;-83
2022/01/13 12:20:25;;;;;;;16.73;8.75;;;3.80;90.00;;;;;;5020480;28;20029;-83
2022/01/13 12:23:15;;;;;;;12.18;8.23;;;3.80;90.00;;;;;;5031649;28;20522;-83
2022/01/13 12:25:40;;;;;;;14.10;9.00;;;3.90;90.00;;;;;;5017844;28;20129;-83
2022/01/13 12:28:14;;;;;;;14.10;8.85;;;3.90;90.00;;;;;;5036579;28;20522;-82
2022/01/13 12:30:40;;;;;;;12.05;7.85;;;3.90;90.00;;;;;;5032218;28;20036;-81
2022/01/13 12:33:07;;;;;;;17.08;10.05;;;4.00;90.00;;;;;;5006984;28;20045;-83
2022/01/13 12:35:38;;;;;;;12.73;8.68;;;4.00;90.00;;;;;;5006359;28;20044;-83
2022/01/13 12:38:07;;;;;;;12.63;8.63;;;4.00;89.90;;;;;;5055662;28;20049;-83
2022/01/13 12:40:34;;;;;;;12.73;8.90;;;3.90;89.90;;;;;;5034820;28;20741;-82
2022/01/13 12:43:20;;;;;;;14.50;9.68;;;4.00;89.90;;;;;;5037021;28;20037;-83
2022/01/13 12:45:46;;;;;;;13.40;8.75;;;3.90;89.90;;;;;;4996945;28;20037;-82
2022/01/13 12:48:11;;;;;;;12.98;8.98;;;4.00;90.00;;;;;;5028825;28;20266;-82
2022/01/13 12:50:39;;;;;;;14.57;9.00;;;4.00;89.90;;;;;;5000399;28;20091;-83
2022/01/13 12:53:17;;;;;;;15.70;10.10;;;4.00;89.90;;;;;;5039927;28;20545;-83
2022/01/13 12:55:53;;;;;;;16.83;10.35;;;4.10;90.00;;;;;;5025138;28;20037;-83
2022/01/13 12:58:23;;;;;;;15.90;10.15;;;4.10;89.90;;;;;;5038220;28;20043;-82
2022/01/13 13:00:49;;;;;;;16.00;10.18;;;4.10;89.70;;;;;;5004145;28;20045;-82
2022/01/13 13:03:15;;;;;;;14.43;9.75;;;4.20;89.70;;;;;;5035032;28;20040;-82
2022/01/13 13:05:45;;;;;;;14.00;9.60;;;4.20;89.60;;;;;;5005223;28;20036;-83
2022/01/13 13:08:13;;;;;;;11.63;8.65;;;4.20;89.60;;;;;;5002608;28;20048;-83